Relevés horaires Kleine Brogel (Belgique)


Relevés horaires à Kleine Brogel - Mardi 14 Mai 2024
Heure UTC1 Température [°C] Vent [km/h] Hum. [%] Pres.4 [hPa] Visi. [Km] Nébu. [octa] Préc.5 [mm] Cond.
2m. Res. Ros. Dir.2 Vit. Moy. Raf.3
23:00 -- -- -- NNO 0.0 -- 1.9 -- 999.4(0.4/3h) 28 -- -- --
22:00 -- -- -- NNO 1.9 -- 3.7 -- 999.4(1.1/3h) 22 -- -- --
21:00 22.0 22.0 19.5 NNO 1.9 -- 14.8 86 1006(1.8/3h) 10 7/8 -- --
17:00 23.0 23.0 15.5 SE 3.7 -- 13.0 63 1004.5(1.3/3h) 10 7/8 -- Il y a un orage accompagné de pluie ou de neige à la station au moment de l'observation
16:00 23.0 23.0 15.5 SO 7.4 -- 14.8 63 1003.1(-0.2/3h) 20 5/8 -- --
15:00 23.0 23.0 15.5 SSO 9.3 -- 18.5 63 1003.1(-0.5/3h) 20 5/8 -- --
14:00 23.0 23.0 15.5 S 7.4 -- 16.7 63 1003.2(-0.7/3h) 20 3/8 -- --
13:00 22.0 22.0 16.2 S 7.4 -- 16.7 70 1003.3(-0.8/3h) 20 3/8 -- --
12:00 22.0 22.0 16.2 S 7.4 -- 18.5 70 1003.7(-0.5/3h) 20 3/8 -- --
11:00 22.0 22.0 16.2 SSE 7.4 -- 16.7 70 1004(-0.6/3h) 20 2/8 -- --
10:00 19.0 19.0 16.0 SSE 5.6 -- 14.8 83 1004.2(-0.6/3h) 20 1/8 -- --
09:00 19.0 19.0 16.0 SSE 7.4 -- 13.0 83 1004.3(-0.6/3h) 20 1/8 -- --
08:00 19.0 19.0 16.0 E 5.6 -- 11.1 83 1004.7(-0.5/3h) 20 1/8 -- --
07:00 16.0 16.0 14.1 NNO 3.7 -- 7.4 88 1005(-0.3/3h) 20 0/8 -- --
06:00 16.0 16.0 14.1 NNO 3.7 -- 9.3 88 1005.1(-0.4/3h) 20 0/8 -- --
05:00 15.0 15.0 13.2 E 3.7 -- 7.4 89 1005.3(-0.4/3h) 20 0/8 -- --
04:00 -- -- -- E 3.7 -- 7.4 -- 998.5(-0.9/3h) 17 -- -- --
03:00 -- -- -- E 3.7 -- 5.6 -- 998.6(-1.3/3h) 17 -- -- --
02:00 -- -- -- NNO 1.9 -- 5.6 -- 998.9(-1.7/3h) >70 -- -- --
01:00 -- -- -- NNO 1.9 -- 1.9 -- 999.4(-1.5/3h) 15 -- -- --
00:00 -- -- -- NNO 1.9 -- 5.6 -- 999.9(-1.1/3h) >70 -- -- --

1 Coordinated Universal Time. Actuellement il est 01:00 locale et 23:00 UTC.

2 Le vent souffle depuis la direction indiquée vers la direction oposée.

3 Les rafales max. sont disponible 40 min après l'heure du relevé.

4 Pour les stations d'altitude (plus de 600m) le géopotentiel du niveau le plus proche de la pression obligatoire est indiqué.

5 Les stations disposant d'un diffuseur peuvent indiquer "trace". Cela signifie que des précipitations ont touchés le sol mais que la quantité est inférieure à 0.1 mm.

Récapitulatif de la journée
Température [°C] Vent [km/h] Ensoleillement4 [h] Precipitations totale5 [mm] Pression [Hpa]
Min1 Max.2 Moy.3 Max. Min Max.
-- -- 0 18.5 0 h 0 min 0 998.5 1006.0

1 Température minimale relevée entre 18:00 UTC la veille et 18:00 UTC le jour donné.

2 Température maximale relevée entre 06:00 UTC le jour donné et 06:00 UTC le lendemain.

3 Vent moyen de la journée basé sur les relevés horaires.

4 Ensoleillement en heures relevé entre 06:00 UTC la veille et 06:00 UTC le jour donné.

5 Précipitations totales tombées entre 06:00 UTC la jour donné et 06:00 UTC le lendemain.

Graphiques horaires